TFM - Tactical Decision Aid (Experimental) INFO Settings
ID: Runway Winds: CIG/VIS Threshold: METAR Board: Map:

KJAN - Jackson-Medgar Wiley Evers Intl

Updated at: 1348 UTC 17 Dec 2017
Latest TAF at: 1145 UTC 17 Dec 2017

TAF Board

Time1342Z17/14Z17/15Z17/16Z17/17Z17/18Z17/19Z17/20Z17/21Z17/22Z17/23Z18/00Z18/01Z18/02Z
TypeOBSPRVLPRVLPRVLPRVLPRVLPRVLPRVLPRVLPRVLPRVLPRVLPRVLPRVL
VIS36>6>6>6>6>6>6>6>6>6>6>6>6
CIG35512121212121212121212126
CoverOVCOVCBKNBKNBKNBKNBKNBKNBKNBKNBKNBKNBKNOVC
FltCatMVFRIFRMVFRMVFRMVFRMVFRMVFRMVFRMVFRMVFRMVFRMVFRMVFRIFR
WXRA BR-RA BR------------------------
WDir3029012012012012012012012012012012012090
WSpd66999999999993
WGst----------------------------
TAF
KJAN 171145Z 1712/1812 29006KT 6SM -RA BR BKN005 OVC015
  FM171500 12009KT P6SM BKN012 BKN100
  FM180200 09003KT P6SM OVC006
  FM180600 12003KT 2SM BR OVC003


METAR Board

Time17/02Z 17/03Z 17/04Z 17/05Z 17/06Z 17/07Z 17/08Z 17/09Z 17/10Z 17/11Z 17/12Z 17/13Z
VIS10 10 10 10 10 10 10 10 10 9 8 6
CIG95 100 24 95 95 100 100 95 75 15 6 5
CoverBKNBKNOVCOVCOVCOVCOVCOVCOVCOVCOVCOVC
FltCatVFRVFRMVFRVFRVFRVFRVFRVFRVFRMVFRIFRIFR
WX-----------------RA-RA-RA-RA BR
WDir0150130130150150130140170290360350
WSpd0 5 7 8 8 11 11 11 8 6 8 9
WGst-- -- -- -- -- -- -- -- -- -- -- --
METAR
KJAN 170154Z 00000KT 10SM BKN095 08/00 A3020 RMK AO2 SLP228 T00780000
KJAN 170254Z 15005KT 10SM BKN100 09/00 A3019 RMK AO2 SLP223 T00890000 50004
KJAN 170354Z 13007KT 10SM OVC024 11/00 A3016 RMK AO2 SLP211 T01060000
KJAN 170454Z 13008KT 10SM OVC095 11/00 A3012 RMK AO2 SLP199 T01110000
KJAN 170554Z AUTO 15008KT 10SM OVC095 12/01 A3011 RMK AO2 SLP194 T01170006 10117 20072 401441028 56027
KJAN 170654Z AUTO 15011KT 10SM OVC100 12/00 A3008 RMK AO2 SLP183 T01220000
KJAN 170754Z AUTO 13011KT 10SM OVC100 13/00 A3003 RMK AO2 SLP167 T01280000
KJAN 170854Z AUTO 14011KT 10SM OVC095 13/03 A3002 RMK AO2 SLP163 T01330033 56031
KJAN 170954Z AUTO 17008KT 10SM -RA FEW025 BKN075 OVC120 13/09 A3003 RMK AO2 RAB24 SLP168 P0004 T01280089
KJAN 171101Z AUTO 29006KT 9SM -RA FEW008 OVC015 12/10 A3011 RMK AO2 P0000 T01170100
KJAN 171154Z 36008KT 8SM -RA OVC006 12/10 A3009 RMK AO2 SLP190 P0008 60049 70049 T01170100 10133 20117 50025
KJAN 171254Z 35009KT 6SM -RA BR BKN005 OVC017 09/08 A3012 RMK AO2 SLP200 P0012 T00940078

TAF/METAR Board Legend

Potential Impact
  None Marginal Slight Moderate High
Visibility (sm) >5 3≤X≤5 2≤X<3 0.5≤X<2 <0.5
Ceiling (100 ft) >30 10≤X≤30 6≤X<10 2≤X<6 <2
Wind Speed (kt) <10 10≤X<20 20≤X<30 ≥30
Wind Gust (kt) <15 15≤X<25 25≤X<35 ≥35
Weather No Wx Reported VCTS -TS,-FZRA TS,FZRA +TS,+FZRA